Time;durP1;ratioP1;P1;durP2;ratioP2;P2;SDS_P1;SDS_P2;PMS_P1;PMS_P2;Temp;Humidity;BMP_temperature;BMP_pressure;BME280_temperature;BME280_humidity;BME280_pressure;Samples;Min_cycle;Max_cycle;Signal;HPM_P1;HPM_P2
2024/03/31 00:01:04;;;;;;;0.60;0.53;;;20.20;75.60;;;;;;5088435;28;20160;-74
2024/03/31 00:03:30;;;;;;;0.30;0.20;;;20.20;75.70;;;;;;5087310;28;20557;-74
2024/03/31 00:05:56;;;;;;;0.73;0.73;;;20.20;75.30;;;;;;5086960;28;20425;-74
2024/03/31 00:08:22;;;;;;;0.30;0.30;;;20.10;75.00;;;;;;5086429;28;20669;-74
2024/03/31 00:10:47;;;;;;;0.30;0.20;;;20.10;74.60;;;;;;5086680;28;20428;-74
2024/03/31 00:13:13;;;;;;;0.30;0.20;;;20.00;75.10;;;;;;5087416;28;20197;-74
2024/03/31 00:15:39;;;;;;;0.70;0.70;;;20.00;75.40;;;;;;5087785;28;20184;-74
2024/03/31 00:18:04;;;;;;;0.30;0.20;;;19.90;75.70;;;;;;5086397;28;20584;-74
2024/03/31 00:20:30;;;;;;;0.80;0.80;;;19.80;76.00;;;;;;5087990;28;20251;-74
2024/03/31 00:22:56;;;;;;;2.30;2.10;;;19.80;76.00;;;;;;5087669;28;20433;-74
2024/03/31 00:25:21;;;;;;;0.30;0.20;;;19.80;76.50;;;;;;5086129;28;20196;-74
2024/03/31 00:27:47;;;;;;;0.30;0.20;;;19.80;76.10;;;;;;5087757;28;20211;-74
2024/03/31 00:30:12;;;;;;;0.30;0.20;;;19.80;75.70;;;;;;5086520;28;20188;-74
2024/03/31 00:32:38;;;;;;;0.30;0.20;;;19.60;74.50;;;;;;5087431;28;20216;-74
2024/03/31 00:35:04;;;;;;;1.13;0.63;;;19.60;73.70;;;;;;5087989;28;20205;-74
2024/03/31 00:37:30;;;;;;;0.50;0.50;;;19.60;73.70;;;;;;5085714;28;20223;-74
2024/03/31 00:39:55;;;;;;;0.30;0.20;;;19.60;73.10;;;;;;5085947;28;20421;-74
2024/03/31 00:42:21;;;;;;;0.30;0.20;;;19.70;72.60;;;;;;5087049;28;20559;-74
2024/03/31 00:44:47;;;;;;;0.30;0.20;;;19.70;72.20;;;;;;5085923;28;20176;-74
2024/03/31 00:47:12;;;;;;;0.30;0.20;;;19.80;72.20;;;;;;5087017;28;20172;-74
2024/03/31 00:49:38;;;;;;;0.30;0.20;;;19.80;71.60;;;;;;5085852;28;20391;-74
2024/03/31 00:52:04;;;;;;;0.30;0.20;;;19.90;71.30;;;;;;5086808;28;20187;-74
2024/03/31 00:54:37;;;;;;;0.30;0.20;;;19.90;71.30;;;;;;5085457;28;20270;-74
2024/03/31 00:57:03;;;;;;;0.30;0.20;;;20.00;72.10;;;;;;5086599;28;20575;-74
2024/03/31 00:59:28;;;;;;;0.30;0.20;;;20.10;71.70;;;;;;5086854;28;20902;-74
2024/03/31 01:01:54;;;;;;;0.50;0.50;;;20.20;71.80;;;;;;5087004;28;20629;-75
2024/03/31 01:04:20;;;;;;;2.73;0.97;;;20.20;72.10;;;;;;5085996;28;20781;-74
2024/03/31 01:06:46;;;;;;;0.30;0.20;;;20.20;72.70;;;;;;5085417;28;20183;-74
2024/03/31 01:09:11;;;;;;;0.77;0.70;;;20.10;73.00;;;;;;5085509;28;20970;-74
2024/03/31 01:11:37;;;;;;;0.50;0.50;;;20.00;73.10;;;;;;5086801;28;20172;-74
2024/03/31 01:14:04;;;;;;;0.30;0.20;;;20.00;73.30;;;;;;5087089;28;20568;-74
2024/03/31 01:16:30;;;;;;;0.30;0.20;;;20.00;73.90;;;;;;5085086;28;20483;-74
2024/03/31 01:18:56;;;;;;;0.30;0.20;;;19.90;73.90;;;;;;5086513;28;20441;-74
2024/03/31 01:21:25;;;;;;;0.30;0.20;;;19.90;74.20;;;;;;5085197;28;20176;-74
2024/03/31 01:23:52;;;;;;;0.30;0.20;;;19.80;74.10;;;;;;5085036;28;20481;-74
2024/03/31 01:26:17;;;;;;;0.30;0.20;;;19.60;74.10;;;;;;5086783;28;20501;-74
2024/03/31 01:28:43;;;;;;;0.30;0.30;;;19.60;74.10;;;;;;5085318;28;20536;-75
2024/03/31 01:31:09;;;;;;;0.60;0.57;;;19.50;74.00;;;;;;5085150;28;20234;-74
2024/03/31 01:33:34;;;;;;;0.30;0.20;;;19.60;74.10;;;;;;5084709;28;20201;-74
2024/03/31 01:36:01;;;;;;;0.30;0.20;;;19.60;73.80;;;;;;5086516;28;20260;-74
2024/03/31 01:38:26;;;;;;;0.30;0.30;;;19.60;74.00;;;;;;5084573;28;20202;-74
2024/03/31 01:40:52;;;;;;;0.30;0.20;;;19.60;73.80;;;;;;5085983;28;20405;-74
2024/03/31 01:43:18;;;;;;;0.30;0.20;;;19.60;73.80;;;;;;5086106;28;20231;-74
2024/03/31 01:45:44;;;;;;;0.30;0.20;;;19.60;74.10;;;;;;5084721;28;20187;-74
2024/03/31 01:48:09;;;;;;;7.10;2.20;;;19.60;73.90;;;;;;5084656;28;20490;-74
2024/03/31 01:50:35;;;;;;;0.30;0.20;;;19.60;74.00;;;;;;5085897;28;20215;-74
2024/03/31 01:53:01;;;;;;;0.30;0.20;;;19.60;74.10;;;;;;5085754;28;20199;-74
2024/03/31 01:55:26;;;;;;;0.60;0.60;;;19.50;74.50;;;;;;5085605;28;20493;-74
2024/03/31 01:57:52;;;;;;;0.30;0.20;;;19.50;75.00;;;;;;5085721;28;20715;-74
2024/03/31 02:00:19;;;;;;;0.30;0.30;;;19.50;76.30;;;;;;5085986;28;20641;-74
2024/03/31 02:02:44;;;;;;;0.30;0.20;;;19.40;76.20;;;;;;5084421;28;20691;-74
2024/03/31 02:05:10;;;;;;;2.20;0.73;;;19.30;76.70;;;;;;5084060;28;20436;-74
2024/03/31 02:07:35;;;;;;;0.30;0.20;;;19.20;77.20;;;;;;5083277;28;20203;-74
2024/03/31 02:10:01;;;;;;;33.43;2.10;;;19.10;77.40;;;;;;5085477;28;20180;-74
2024/03/31 02:12:27;;;;;;;0.30;0.20;;;19.10;77.60;;;;;;5085454;28;20199;-74
2024/03/31 02:14:52;;;;;;;0.73;0.40;;;19.00;77.90;;;;;;5085934;28;20828;-74
2024/03/31 02:17:18;;;;;;;0.30;0.30;;;18.80;78.50;;;;;;5083801;28;20209;-74
2024/03/31 02:19:43;;;;;;;0.30;0.20;;;18.70;79.10;;;;;;5084430;28;20191;-74
2024/03/31 02:22:09;;;;;;;0.30;0.20;;;18.60;79.60;;;;;;5084006;28;20188;-74
2024/03/31 02:24:35;;;;;;;0.33;0.30;;;18.40;79.90;;;;;;5085603;28;20964;-74
2024/03/31 02:27:00;;;;;;;0.93;0.70;;;18.40;80.30;;;;;;5085443;28;20254;-74
2024/03/31 02:29:26;;;;;;;0.30;0.30;;;18.40;80.50;;;;;;5083908;28;20211;-74
2024/03/31 02:31:52;;;;;;;0.30;0.20;;;18.40;80.90;;;;;;5085639;28;20166;-74
2024/03/31 02:34:20;;;;;;;0.37;0.37;;;18.30;81.30;;;;;;5085660;28;20206;-74
2024/03/31 02:36:48;;;;;;;0.30;0.20;;;18.20;81.60;;;;;;5085476;28;20656;-74
2024/03/31 02:39:15;;;;;;;0.90;0.60;;;18.20;82.40;;;;;;5085701;28;20445;-74
2024/03/31 02:41:40;;;;;;;0.40;0.33;;;18.20;83.00;;;;;;5083641;28;20442;-74
2024/03/31 02:44:06;;;;;;;0.50;0.47;;;18.10;83.30;;;;;;5085623;28;20479;-74
2024/03/31 02:46:31;;;;;;;0.60;0.60;;;18.10;83.60;;;;;;5082819;28;20185;-74
2024/03/31 02:48:57;;;;;;;1.17;1.00;;;18.00;83.90;;;;;;5082827;28;20217;-74
2024/03/31 02:51:22;;;;;;;0.60;0.60;;;18.00;84.50;;;;;;5083445;28;20198;-74
2024/03/31 02:53:48;;;;;;;0.30;0.30;;;18.00;84.80;;;;;;5083564;28;20204;-74
2024/03/31 02:56:14;;;;;;;0.30;0.20;;;17.90;84.90;;;;;;5082088;28;20385;-74
2024/03/31 02:58:39;;;;;;;1.13;1.13;;;17.80;85.10;;;;;;5083218;28;20213;-74
2024/03/31 03:01:07;;;;;;;0.30;0.30;;;17.80;85.20;;;;;;5082359;28;20644;-74
2024/03/31 03:03:32;;;;;;;0.90;0.63;;;17.80;85.30;;;;;;5083337;28;20195;-74
2024/03/31 03:05:59;;;;;;;0.40;0.40;;;17.80;85.40;;;;;;5082380;28;20954;-74
2024/03/31 03:08:24;;;;;;;0.30;0.20;;;17.80;85.40;;;;;;5080917;28;20985;-75
2024/03/31 03:10:54;;;;;;;0.30;0.27;;;17.80;85.40;;;;;;5083139;28;20413;-75
2024/03/31 03:13:20;;;;;;;0.40;0.30;;;17.70;85.40;;;;;;5082023;28;20530;-75
2024/03/31 03:15:46;;;;;;;0.30;0.20;;;17.70;85.60;;;;;;5084477;28;20591;-75
2024/03/31 03:18:14;;;;;;;0.30;0.20;;;17.70;85.50;;;;;;5086984;28;20839;-74
2024/03/31 03:20:40;;;;;;;0.30;0.30;;;17.60;85.70;;;;;;5087666;28;20214;-74
2024/03/31 03:23:06;;;;;;;0.70;0.67;;;17.50;85.90;;;;;;5088909;28;20453;-74
2024/03/31 03:25:31;;;;;;;0.30;0.20;;;17.50;86.20;;;;;;5089086;28;20782;-74
2024/03/31 03:27:57;;;;;;;0.30;0.20;;;17.50;86.10;;;;;;5087202;28;20201;-74
2024/03/31 03:30:22;;;;;;;1.83;1.70;;;17.40;86.10;;;;;;5088380;28;20177;-74
2024/03/31 03:32:50;;;;;;;0.40;0.40;;;17.50;86.10;;;;;;5088881;28;20202;-74
2024/03/31 03:35:16;;;;;;;0.30;0.20;;;17.40;86.10;;;;;;5087592;28;20266;-74
2024/03/31 03:37:42;;;;;;;0.30;0.30;;;17.40;86.30;;;;;;5086977;28;21021;-74
2024/03/31 03:40:08;;;;;;;0.40;0.40;;;17.40;86.10;;;;;;5088966;28;20509;-74
2024/03/31 03:42:33;;;;;;;0.30;0.20;;;17.40;86.10;;;;;;5088164;28;20200;-74
2024/03/31 03:44:59;;;;;;;0.30;0.20;;;17.40;86.30;;;;;;5088356;28;20182;-74
2024/03/31 03:47:24;;;;;;;0.30;0.20;;;17.30;86.10;;;;;;5088272;28;20445;-74
2024/03/31 03:49:51;;;;;;;0.30;0.20;;;17.30;86.40;;;;;;5088645;28;20178;-74
2024/03/31 03:52:18;;;;;;;0.40;0.40;;;17.20;86.20;;;;;;5088170;28;20260;-74
2024/03/31 03:54:44;;;;;;;2.20;1.67;;;17.20;86.10;;;;;;5088683;28;20413;-74
2024/03/31 03:57:10;;;;;;;3.80;0.70;;;17.10;86.10;;;;;;5086358;28;21021;-74
2024/03/31 03:59:35;;;;;;;0.70;0.70;;;17.10;86.30;;;;;;5088015;28;20432;-74
2024/03/31 04:02:01;;;;;;;0.40;0.40;;;17.10;86.40;;;;;;5088062;28;20934;-74
2024/03/31 04:04:27;;;;;;;0.40;0.30;;;17.00;86.60;;;;;;5086565;28;20205;-74
2024/03/31 04:06:52;;;;;;;0.30;0.20;;;17.00;86.70;;;;;;5087775;28;20184;-74
2024/03/31 04:09:18;;;;;;;0.73;0.47;;;17.10;86.60;;;;;;5086742;28;20215;-74
2024/03/31 04:11:43;;;;;;;0.30;0.30;;;17.10;86.30;;;;;;5087743;28;20176;-74
2024/03/31 04:14:09;;;;;;;0.30;0.20;;;17.10;86.40;;;;;;5085258;28;20205;-74
2024/03/31 04:16:35;;;;;;;0.30;0.20;;;17.10;86.30;;;;;;5086670;28;20286;-74
2024/03/31 04:19:00;;;;;;;1.10;1.07;;;17.10;86.10;;;;;;5086033;28;20241;-74
2024/03/31 04:21:26;;;;;;;0.40;0.40;;;17.10;86.10;;;;;;5087856;28;20173;-74
2024/03/31 04:23:52;;;;;;;12.83;0.87;;;17.00;86.10;;;;;;5087494;28;20326;-74
2024/03/31 04:26:17;;;;;;;0.30;0.20;;;17.00;86.20;;;;;;5087754;28;20197;-74
2024/03/31 04:28:43;;;;;;;0.40;0.40;;;17.10;86.20;;;;;;5086975;28;20375;-74
2024/03/31 04:31:08;;;;;;;0.40;0.20;;;17.00;86.20;;;;;;5087664;28;20540;-74
2024/03/31 04:33:34;;;;;;;0.40;0.40;;;16.90;86.30;;;;;;5087011;28;20245;-74
2024/03/31 04:36:00;;;;;;;0.60;0.60;;;16.90;86.70;;;;;;5086069;28;20521;-74
2024/03/31 04:38:26;;;;;;;1.40;1.40;;;16.80;86.70;;;;;;5085877;28;20232;-74
2024/03/31 04:40:58;;;;;;;0.30;0.30;;;16.80;86.80;;;;;;5086128;28;20421;-74
2024/03/31 04:43:24;;;;;;;0.30;0.20;;;16.80;86.80;;;;;;5085554;28;20667;-74
2024/03/31 04:46:03;;;;;;;0.30;0.30;;;16.80;87.00;;;;;;5085772;28;21001;-74
2024/03/31 04:48:30;;;;;;;0.40;0.40;;;16.80;87.30;;;;;;5086936;28;20198;-74
2024/03/31 04:50:55;;;;;;;0.43;0.43;;;16.70;86.90;;;;;;5085719;28;20484;-74
2024/03/31 04:53:21;;;;;;;3.00;1.40;;;16.80;87.10;;;;;;5086779;28;20436;-74
2024/03/31 04:55:47;;;;;;;0.30;0.30;;;16.70;87.00;;;;;;5085605;28;20224;-74
2024/03/31 04:58:12;;;;;;;0.40;0.40;;;16.70;87.00;;;;;;5085391;28;20417;-74
2024/03/31 05:00:39;;;;;;;1.90;1.80;;;16.70;87.20;;;;;;5087311;28;20262;-74
2024/03/31 05:03:04;;;;;;;1.63;1.53;;;16.70;87.00;;;;;;5087062;28;20275;-74
2024/03/31 05:05:30;;;;;;;0.40;0.40;;;16.70;87.10;;;;;;5087269;28;20504;-74
2024/03/31 05:07:56;;;;;;;0.60;0.60;;;16.60;87.20;;;;;;5086641;28;20205;-74
2024/03/31 05:10:22;;;;;;;0.93;0.93;;;16.60;87.20;;;;;;5087013;28;20176;-74
2024/03/31 05:12:47;;;;;;;7.10;1.27;;;16.60;87.30;;;;;;5086659;28;20200;-74
2024/03/31 05:15:13;;;;;;;0.30;0.30;;;16.60;86.80;;;;;;5086161;28;20442;-74
2024/03/31 05:17:38;;;;;;;0.30;0.30;;;16.60;86.50;;;;;;5086163;28;20265;-74
2024/03/31 05:20:04;;;;;;;1.30;1.30;;;16.60;86.20;;;;;;5087206;28;20773;-74
2024/03/31 05:22:30;;;;;;;0.30;0.23;;;16.60;86.20;;;;;;5086337;28;20200;-74
2024/03/31 05:24:56;;;;;;;0.30;0.30;;;16.70;85.80;;;;;;5086664;28;20421;-74
2024/03/31 05:27:21;;;;;;;0.40;0.37;;;16.70;85.50;;;;;;5086177;28;20645;-74
2024/03/31 05:29:47;;;;;;;0.30;0.20;;;16.70;85.30;;;;;;5086477;28;20168;-74
2024/03/31 05:32:13;;;;;;;0.40;0.40;;;16.80;85.30;;;;;;5086259;28;20637;-74
2024/03/31 05:34:38;;;;;;;0.30;0.30;;;16.80;85.20;;;;;;5085262;28;20173;-74
2024/03/31 05:37:04;;;;;;;0.70;0.70;;;16.80;85.10;;;;;;5084836;28;20305;-74
2024/03/31 05:39:30;;;;;;;0.40;0.30;;;16.80;85.60;;;;;;5085505;28;20550;-74
2024/03/31 05:41:55;;;;;;;0.30;0.20;;;16.90;85.60;;;;;;5084585;28;20184;-74
2024/03/31 05:44:21;;;;;;;0.30;0.20;;;16.80;85.50;;;;;;5086227;28;20930;-74
2024/03/31 05:46:47;;;;;;;0.30;0.20;;;16.90;85.40;;;;;;5085974;28;20676;-74
2024/03/31 05:49:12;;;;;;;1.03;0.63;;;16.80;85.20;;;;;;5086112;28;20272;-74
2024/03/31 05:51:38;;;;;;;1.53;0.93;;;16.90;85.10;;;;;;5085669;28;20187;-74
2024/03/31 05:54:04;;;;;;;0.40;0.30;;;16.90;85.10;;;;;;5085092;28;20608;-74
2024/03/31 05:56:29;;;;;;;1.23;1.23;;;16.90;84.30;;;;;;5084431;28;20242;-74
2024/03/31 05:58:55;;;;;;;0.30;0.20;;;17.00;84.30;;;;;;5084316;28;20754;-74
2024/03/31 06:01:20;;;;;;;0.50;0.50;;;17.00;84.20;;;;;;5085464;28;20290;-74
2024/03/31 06:03:46;;;;;;;0.63;0.63;;;17.10;83.70;;;;;;5085474;28;20280;-75
2024/03/31 06:06:12;;;;;;;0.30;0.20;;;17.10;84.60;;;;;;5085759;28;20256;-73
2024/03/31 06:08:37;;;;;;;0.30;0.20;;;17.20;84.50;;;;;;5084424;28;20201;-75
2024/03/31 06:11:03;;;;;;;0.50;0.50;;;17.40;85.10;;;;;;5084852;28;20289;-75
2024/03/31 06:13:29;;;;;;;0.50;0.43;;;17.50;85.50;;;;;;5083094;28;20194;-73
2024/03/31 06:15:54;;;;;;;0.30;0.30;;;17.60;84.50;;;;;;5085353;28;20166;-75
2024/03/31 06:18:20;;;;;;;0.47;0.40;;;17.70;83.40;;;;;;5083077;28;20220;-75
2024/03/31 06:20:45;;;;;;;0.30;0.20;;;17.80;83.00;;;;;;5084094;28;20548;-74
2024/03/31 06:23:11;;;;;;;0.30;0.20;;;17.90;83.30;;;;;;5085443;28;20440;-74
2024/03/31 06:25:57;;;;;;;0.30;0.20;;;17.90;83.10;;;;;;5084137;28;20183;-78
2024/03/31 06:28:22;;;;;;;0.60;0.50;;;18.00;83.00;;;;;;5084115;28;20190;-75
2024/03/31 06:30:48;;;;;;;0.50;0.50;;;18.00;83.30;;;;;;5084360;28;20756;-76
2024/03/31 06:33:14;;;;;;;0.30;0.20;;;18.00;83.30;;;;;;5084854;28;20416;-77
2024/03/31 06:35:40;;;;;;;0.70;0.70;;;18.10;83.10;;;;;;5084926;28;20179;-77
2024/03/31 06:38:06;;;;;;;0.50;0.47;;;18.10;84.10;;;;;;5085286;28;20678;-78
2024/03/31 06:40:33;;;;;;;0.40;0.30;;;18.10;83.40;;;;;;5085307;28;20776;-79
2024/03/31 06:42:59;;;;;;;0.50;0.40;;;18.20;84.80;;;;;;5082581;28;20201;-79
2024/03/31 06:45:24;;;;;;;0.30;0.20;;;18.30;83.80;;;;;;5085712;28;20759;-80
2024/03/31 06:47:50;;;;;;;0.30;0.20;;;18.40;83.40;;;;;;5085071;28;20427;-78
2024/03/31 06:50:16;;;;;;;0.73;0.73;;;18.40;83.10;;;;;;5083865;28;20186;-78
2024/03/31 06:52:41;;;;;;;0.30;0.20;;;18.50;82.10;;;;;;5087903;28;20242;-77
2024/03/31 06:55:07;;;;;;;0.60;0.60;;;18.60;82.10;;;;;;5087454;28;20239;-78
2024/03/31 06:57:33;;;;;;;0.30;0.20;;;18.70;81.10;;;;;;5088322;28;20207;-78
2024/03/31 06:59:59;;;;;;;0.30;0.20;;;18.70;80.60;;;;;;5088145;28;20256;-78
2024/03/31 07:02:24;;;;;;;0.30;0.20;;;18.80;80.80;;;;;;5087992;28;20932;-78
2024/03/31 07:04:50;;;;;;;1.17;0.60;;;18.90;80.30;;;;;;5087126;28;20182;-76
2024/03/31 07:07:15;;;;;;;0.30;0.20;;;19.00;79.50;;;;;;5087758;28;20205;-78
2024/03/31 07:09:41;;;;;;;0.30;0.20;;;19.10;79.50;;;;;;5087600;28;20192;-81
2024/03/31 07:12:07;;;;;;;0.73;0.73;;;19.20;78.80;;;;;;5088364;28;20253;-76
2024/03/31 07:14:32;;;;;;;0.30;0.30;;;19.30;78.80;;;;;;5087793;28;20180;-78
2024/03/31 07:17:01;;;;;;;0.30;0.20;;;19.50;79.00;;;;;;5085198;28;20548;-73
2024/03/31 07:19:27;;;;;;;0.30;0.20;;;19.60;79.20;;;;;;5086759;28;20203;-72
2024/03/31 07:21:52;;;;;;;0.30;0.20;;;19.70;79.20;;;;;;5087133;28;20408;-76
2024/03/31 07:24:18;;;;;;;0.40;0.30;;;19.80;79.00;;;;;;5087507;28;20205;-84
2024/03/31 07:26:44;;;;;;;0.70;0.63;;;20.00;78.00;;;;;;5087623;28;20662;-89
2024/03/31 07:29:09;;;;;;;0.40;0.37;;;20.10;77.90;;;;;;5087874;28;20228;-85
2024/03/31 07:31:35;;;;;;;0.43;0.40;;;20.20;78.20;;;;;;5085538;28;20662;-90
2024/03/31 07:34:03;;;;;;;0.83;0.77;;;20.30;77.10;;;;;;5085891;28;20295;-82
2024/03/31 07:36:29;;;;;;;0.30;0.30;;;20.40;77.20;;;;;;5089393;28;20468;-81
2024/03/31 07:38:54;;;;;;;0.70;0.70;;;20.50;77.40;;;;;;5086468;28;20998;-80
2024/03/31 07:41:20;;;;;;;0.30;0.20;;;20.60;77.00;;;;;;5088348;28;20198;-81
2024/03/31 07:43:46;;;;;;;0.30;0.20;;;20.70;75.10;;;;;;5086697;28;20204;-81
2024/03/31 07:46:11;;;;;;;0.30;0.20;;;20.80;74.50;;;;;;5088003;28;20188;-80
2024/03/31 07:48:37;;;;;;;0.30;0.20;;;20.90;74.20;;;;;;5088019;28;20219;-79
2024/03/31 07:51:03;;;;;;;0.53;0.50;;;21.00;74.80;;;;;;5088054;28;20176;-76
2024/03/31 07:53:28;;;;;;;0.30;0.20;;;21.10;74.00;;;;;;5087294;28;20184;-74
2024/03/31 07:55:58;;;;;;;0.33;0.30;;;21.20;73.40;;;;;;5086427;28;20231;-83
2024/03/31 07:58:24;;;;;;;2.10;1.40;;;21.20;72.80;;;;;;5086313;28;20220;-79
2024/03/31 08:00:51;;;;;;;0.30;0.20;;;21.20;72.60;;;;;;5086776;28;20413;-80
2024/03/31 08:03:17;;;;;;;0.40;0.40;;;21.30;71.90;;;;;;5086673;28;20184;-81
2024/03/31 08:05:43;;;;;;;1.90;1.03;;;21.50;72.00;;;;;;5088011;28;20933;-78
2024/03/31 08:08:10;;;;;;;0.50;0.50;;;21.60;71.10;;;;;;5086374;28;20264;-86
2024/03/31 08:10:36;;;;;;;0.40;0.20;;;21.90;72.10;;;;;;5086959;28;20747;-81
2024/03/31 08:13:02;;;;;;;0.30;0.20;;;22.10;69.80;;;;;;5085986;28;20437;-80
2024/03/31 08:15:28;;;;;;;0.83;0.47;;;22.30;70.80;;;;;;5088040;28;20982;-78
2024/03/31 08:17:54;;;;;;;0.30;0.20;;;22.50;69.80;;;;;;5085955;28;20733;-78
2024/03/31 08:20:20;;;;;;;0.57;0.57;;;22.70;69.90;;;;;;5086860;28;20409;-77
2024/03/31 08:22:45;;;;;;;0.30;0.20;;;22.80;69.00;;;;;;5085927;28;20433;-77
2024/03/31 08:25:11;;;;;;;1.73;1.73;;;23.00;68.30;;;;;;5086157;28;20842;-79
2024/03/31 08:27:37;;;;;;;3.13;0.50;;;23.20;69.10;;;;;;5087317;28;20279;-79
2024/03/31 08:30:03;;;;;;;0.30;0.30;;;23.30;68.10;;;;;;5086250;28;20620;-79
2024/03/31 08:32:29;;;;;;;0.37;0.30;;;23.40;67.10;;;;;;5083917;28;20709;-73
2024/03/31 08:34:54;;;;;;;2.60;0.93;;;23.50;67.10;;;;;;5082996;28;20429;-79
2024/03/31 08:37:20;;;;;;;0.40;0.30;;;23.70;67.20;;;;;;5083525;28;20203;-81
2024/03/31 08:39:46;;;;;;;15.47;1.00;;;24.00;66.10;;;;;;5084664;28;20404;-77
2024/03/31 08:42:47;;;;;;;0.30;0.20;;;24.30;65.60;;;;;;5083658;28;20259;-80
2024/03/31 08:45:13;;;;;;;1.13;1.03;;;24.60;65.80;;;;;;5084412;28;20771;-80
2024/03/31 08:47:43;;;;;;;0.30;0.30;;;25.00;64.20;;;;;;5084771;28;20519;-80
2024/03/31 08:50:09;;;;;;;0.30;0.20;;;25.30;63.50;;;;;;5087669;28;20548;-81
2024/03/31 08:52:35;;;;;;;0.40;0.30;;;25.50;63.70;;;;;;5086960;28;20464;-77
2024/03/31 08:55:03;;;;;;;0.30;0.30;;;25.70;64.10;;;;;;5085493;28;20416;-80
2024/03/31 08:57:29;;;;;;;3.43;2.23;;;25.90;64.60;;;;;;5085588;28;20242;-80
2024/03/31 08:59:55;;;;;;;0.30;0.20;;;26.20;62.00;;;;;;5087281;28;20778;-77
2024/03/31 09:02:23;;;;;;;0.83;0.57;;;26.30;62.60;;;;;;5085735;28;20409;-80
2024/03/31 09:04:49;;;;;;;7.53;0.87;;;26.30;61.50;;;;;;5087094;28;20185;-77
2024/03/31 09:07:15;;;;;;;0.50;0.30;;;26.40;60.40;;;;;;5087033;28;20400;-77
2024/03/31 09:09:42;;;;;;;0.70;0.63;;;26.40;60.50;;;;;;5087499;28;20934;-77
2024/03/31 09:12:11;;;;;;;0.80;0.80;;;26.40;60.90;;;;;;5086729;28;20161;-76
2024/03/31 09:14:38;;;;;;;14.23;1.07;;;26.30;62.70;;;;;;5085442;28;20425;-77
2024/03/31 09:17:08;;;;;;;0.30;0.20;;;26.30;62.10;;;;;;5084991;28;20468;-77
2024/03/31 09:19:34;;;;;;;0.30;0.20;;;26.50;61.40;;;;;;5086849;28;20431;-77
2024/03/31 09:22:01;;;;;;;0.30;0.30;;;26.60;58.90;;;;;;5085783;28;20922;-80
2024/03/31 09:24:28;;;;;;;0.30;0.30;;;26.70;60.00;;;;;;5084552;28;20506;-80
2024/03/31 09:26:54;;;;;;;0.30;0.20;;;26.80;60.00;;;;;;5086330;28;20156;-80
2024/03/31 09:29:20;;;;;;;0.40;0.40;;;26.90;57.90;;;;;;5085177;28;20506;-81
2024/03/31 09:31:47;;;;;;;0.30;0.20;;;26.90;57.90;;;;;;5086196;28;20175;-80
2024/03/31 09:34:12;;;;;;;0.60;0.57;;;26.90;57.60;;;;;;5086412;28;20484;-77
2024/03/31 09:36:39;;;;;;;0.40;0.40;;;26.80;58.10;;;;;;5086175;28;20497;-79
2024/03/31 09:39:05;;;;;;;0.30;0.20;;;26.70;58.30;;;;;;5085050;28;20209;-80
2024/03/31 09:41:32;;;;;;;0.30;0.20;;;26.80;58.20;;;;;;5086548;28;20410;-80
2024/03/31 09:44:00;;;;;;;0.30;0.20;;;26.70;57.30;;;;;;5085962;28;20228;-77
2024/03/31 09:46:26;;;;;;;0.30;0.20;;;26.60;59.50;;;;;;5086216;28;20489;-77
2024/03/31 09:49:01;;;;;;;0.30;0.20;;;26.60;59.10;;;;;;5084692;28;20478;-79
2024/03/31 09:51:33;;;;;;;0.30;0.20;;;26.80;58.90;;;;;;5086022;28;20411;-77
2024/03/31 09:54:13;;;;;;;0.30;0.20;;;26.90;59.30;;;;;;5083968;28;20729;-81
2024/03/31 09:56:43;;;;;;;0.30;0.20;;;27.00;58.60;;;;;;5085352;28;20471;-76
2024/03/31 09:59:11;;;;;;;0.30;0.30;;;26.90;59.80;;;;;;5086042;28;20549;-80
2024/03/31 10:01:45;;;;;;;0.40;0.40;;;26.90;59.30;;;;;;5085910;28;20464;-80
2024/03/31 10:04:17;;;;;;;0.30;0.20;;;26.80;59.10;;;;;;5085752;28;20431;-76
2024/03/31 10:06:44;;;;;;;0.30;0.20;;;26.80;59.20;;;;;;5085708;28;20401;-76
2024/03/31 10:09:10;;;;;;;0.30;0.20;;;26.70;59.10;;;;;;5086238;28;20438;-81
2024/03/31 10:11:36;;;;;;;1.63;1.53;;;26.60;60.00;;;;;;5085568;28;20415;-76
2024/03/31 10:14:04;;;;;;;0.30;0.20;;;26.40;61.30;;;;;;5084050;28;20202;-81
2024/03/31 10:16:30;;;;;;;0.30;0.20;;;26.40;61.60;;;;;;5084370;28;20210;-76
2024/03/31 10:18:57;;;;;;;0.30;0.27;;;26.30;62.50;;;;;;5085322;28;20537;-76
2024/03/31 10:21:24;;;;;;;0.43;0.43;;;26.30;62.30;;;;;;5085115;28;20440;-80
2024/03/31 10:23:52;;;;;;;0.40;0.40;;;26.20;63.10;;;;;;5084457;28;20457;-80
2024/03/31 10:26:20;;;;;;;0.30;0.30;;;26.10;64.50;;;;;;5083463;28;20950;-81
2024/03/31 10:28:46;;;;;;;0.83;0.50;;;26.10;65.10;;;;;;5084152;28;20526;-81
2024/03/31 10:31:12;;;;;;;2.63;1.90;;;26.10;61.80;;;;;;5083865;28;20433;-76
2024/03/31 10:33:38;;;;;;;0.43;0.40;;;26.00;61.30;;;;;;5085170;28;20429;-81
2024/03/31 10:36:05;;;;;;;0.30;0.20;;;26.00;61.60;;;;;;5085679;28;20180;-76
2024/03/31 10:38:31;;;;;;;0.50;0.30;;;26.00;61.10;;;;;;5083664;28;21009;-80
2024/03/31 10:40:57;;;;;;;0.30;0.20;;;26.00;62.30;;;;;;5085567;28;20603;-81
2024/03/31 10:43:23;;;;;;;0.40;0.40;;;26.00;62.00;;;;;;5085069;28;20432;-80
2024/03/31 10:45:49;;;;;;;1.47;0.80;;;26.20;61.60;;;;;;5085452;28;20665;-77
2024/03/31 10:48:15;;;;;;;1.90;1.80;;;26.30;61.50;;;;;;5085049;28;20745;-81
2024/03/31 10:50:42;;;;;;;0.40;0.40;;;26.40;61.00;;;;;;5084018;28;20176;-81
2024/03/31 10:53:09;;;;;;;1.13;1.13;;;26.40;60.80;;;;;;5084913;28;20461;-78
2024/03/31 10:55:35;;;;;;;0.30;0.30;;;26.40;61.10;;;;;;5083977;28;20480;-76
2024/03/31 10:58:01;;;;;;;0.30;0.20;;;26.40;61.30;;;;;;5083581;28;20568;-76
2024/03/31 11:00:34;;;;;;;0.30;0.20;;;26.50;60.80;;;;;;5085501;28;20170;-76
2024/03/31 11:03:06;;;;;;;0.60;0.50;;;26.50;60.80;;;;;;5085116;28;20825;-76
2024/03/31 11:05:32;;;;;;;0.57;0.57;;;26.60;61.00;;;;;;5085424;28;20428;-76
2024/03/31 11:07:59;;;;;;;0.30;0.20;;;26.60;60.20;;;;;;5085526;28;20740;-80
2024/03/31 11:10:25;;;;;;;3.70;1.73;;;26.60;61.20;;;;;;5085455;28;20177;-76
2024/03/31 11:12:51;;;;;;;0.30;0.30;;;26.60;60.80;;;;;;5084839;28;20430;-81
2024/03/31 11:15:19;;;;;;;1.43;1.33;;;26.60;60.00;;;;;;5083793;28;20825;-82
2024/03/31 11:17:45;;;;;;;0.50;0.50;;;26.50;59.70;;;;;;5085298;28;20473;-76
2024/03/31 11:20:13;;;;;;;1.33;1.17;;;26.50;60.30;;;;;;5085152;28;20416;-81
2024/03/31 11:22:38;;;;;;;0.50;0.50;;;26.40;60.30;;;;;;5083127;28;20655;-81
2024/03/31 11:25:08;;;;;;;3.93;0.47;;;26.30;60.40;;;;;;5084424;28;20485;-81
2024/03/31 11:27:34;;;;;;;0.30;0.20;;;26.30;60.60;;;;;;5085212;28;20193;-77
2024/03/31 11:30:02;;;;;;;0.30;0.30;;;26.30;60.90;;;;;;5083757;28;20906;-77
2024/03/31 11:32:32;;;;;;;0.60;0.60;;;26.40;60.60;;;;;;5083473;28;20530;-76
2024/03/31 11:34:59;;;;;;;3.60;1.13;;;26.40;60.10;;;;;;5083952;28;20989;-81
2024/03/31 11:37:25;;;;;;;0.50;0.50;;;26.30;60.20;;;;;;5084836;28;20473;-80
2024/03/31 11:39:57;;;;;;;0.83;0.43;;;26.20;60.50;;;;;;5087447;28;20420;-80
2024/03/31 11:42:25;;;;;;;0.30;0.20;;;26.20;60.10;;;;;;5088252;28;20204;-76
2024/03/31 11:44:52;;;;;;;0.40;0.40;;;26.30;60.20;;;;;;5088268;28;20425;-77
2024/03/31 11:47:17;;;;;;;0.30;0.20;;;26.30;60.70;;;;;;5088526;28;20451;-77
2024/03/31 11:49:43;;;;;;;0.30;0.20;;;26.50;60.90;;;;;;5088613;28;20830;-76
2024/03/31 11:52:09;;;;;;;0.30;0.30;;;26.60;60.30;;;;;;5088349;28;20169;-81
2024/03/31 11:54:35;;;;;;;0.40;0.40;;;26.60;60.50;;;;;;5088373;28;20230;-81
2024/03/31 11:57:03;;;;;;;0.40;0.40;;;26.70;61.70;;;;;;5088201;28;20320;-80
2024/03/31 11:59:29;;;;;;;0.30;0.30;;;26.60;61.00;;;;;;5088198;28;20268;-80
2024/03/31 12:01:56;;;;;;;2.47;1.70;;;26.50;61.00;;;;;;5086590;28;20511;-76
2024/03/31 12:04:22;;;;;;;0.40;0.30;;;26.50;61.60;;;;;;5088075;28;20193;-76
2024/03/31 12:06:48;;;;;;;0.40;0.33;;;26.50;62.30;;;;;;5087844;28;20410;-77
2024/03/31 12:09:15;;;;;;;0.30;0.20;;;26.50;62.60;;;;;;5086568;28;20449;-81
2024/03/31 12:11:45;;;;;;;1.27;1.17;;;26.60;61.30;;;;;;5088226;28;20418;-80
2024/03/31 12:14:11;;;;;;;0.83;0.83;;;26.70;61.50;;;;;;5087820;28;20800;-77
2024/03/31 12:16:42;;;;;;;0.67;0.67;;;26.70;62.60;;;;;;5088246;28;20769;-76
2024/03/31 12:19:08;;;;;;;26.93;1.80;;;26.80;62.00;;;;;;5088215;28;20439;-77
2024/03/31 12:21:34;;;;;;;1.13;1.03;;;26.90;62.30;;;;;;5086213;28;20505;-77
2024/03/31 12:24:01;;;;;;;0.60;0.60;;;27.00;62.70;;;;;;5087684;28;20431;-76
2024/03/31 12:26:27;;;;;;;0.30;0.20;;;27.10;62.90;;;;;;5085483;28;20410;-81
2024/03/31 12:28:53;;;;;;;0.37;0.27;;;27.20;62.90;;;;;;5085709;28;20545;-81
2024/03/31 12:31:20;;;;;;;3.07;0.60;;;27.30;62.40;;;;;;5087660;28;20558;-81
2024/03/31 12:33:47;;;;;;;1.77;1.67;;;27.30;62.10;;;;;;5087308;28;20316;-82
2024/03/31 12:36:13;;;;;;;0.30;0.23;;;27.30;61.30;;;;;;5087534;28;20411;-81
2024/03/31 12:38:40;;;;;;;0.50;0.50;;;27.30;60.60;;;;;;5085853;28;20747;-81
2024/03/31 12:41:06;;;;;;;0.30;0.20;;;27.30;60.80;;;;;;5085971;28;20419;-77